createdAt,value
2022-11-29T00:00:16.526Z,2.04
2022-11-29T00:05:39.374Z,2.03
2022-11-29T00:10:42.363Z,2.01
2022-11-29T00:15:45.190Z,2.04
2022-11-29T00:20:47.940Z,2.00
2022-11-29T00:25:50.691Z,1.93
2022-11-29T00:30:53.553Z,1.89
2022-11-29T00:36:01.516Z,1.84
2022-11-29T00:41:04.949Z,1.77
2022-11-29T00:46:08.871Z,1.73
2022-11-29T00:51:11.951Z,1.68
2022-11-29T00:56:14.737Z,1.62
2022-11-29T01:01:17.635Z,1.61
2022-11-29T01:06:20.552Z,1.57
2022-11-29T01:11:25.730Z,1.49
2022-11-29T01:16:30.658Z,1.43
2022-11-29T01:21:33.493Z,1.35
2022-11-29T01:26:36.285Z,1.30
2022-11-29T01:31:39.335Z,1.30
2022-11-29T01:36:42.110Z,1.27
2022-11-29T01:41:44.926Z,1.21
2022-11-29T01:46:49.629Z,1.20
2022-11-29T01:51:59.142Z,1.17
2022-11-29T01:57:05.713Z,1.10
2022-11-29T02:02:18.374Z,1.06
2022-11-29T02:07:21.274Z,1.04
2022-11-29T02:12:36.228Z,1.00
2022-11-29T02:18:03.919Z,0.99
2022-11-29T02:23:15.862Z,0.96
2022-11-29T02:28:41.651Z,0.97
2022-11-29T02:33:49.449Z,0.98
2022-11-29T02:39:07.217Z,0.97
2022-11-29T02:44:30.989Z,0.95
2022-11-29T02:49:48.673Z,0.93
2022-11-29T02:54:58.459Z,0.90
2022-11-29T03:00:13.555Z,0.88
2022-11-29T03:05:37.066Z,0.88
2022-11-29T03:11:37.143Z,0.87
2022-11-29T03:16:59.133Z,0.88
2022-11-29T03:22:19.523Z,0.88
2022-11-29T03:27:36.398Z,0.91
2022-11-29T03:32:45.017Z,0.90
2022-11-29T03:38:06.296Z,0.91
2022-11-29T03:43:36.144Z,0.93
2022-11-29T03:48:54.223Z,0.90
2022-11-29T03:54:25.727Z,0.90
2022-11-29T04:00:01.842Z,0.90
2022-11-29T04:05:19.768Z,0.90
2022-11-29T04:10:44.646Z,0.89
2022-11-29T04:16:04.357Z,0.87
2022-11-29T04:21:41.258Z,0.88
2022-11-29T04:26:43.893Z,0.87
2022-11-29T04:32:02.770Z,0.85
2022-11-29T04:37:33.647Z,0.86
2022-11-29T04:43:12.153Z,0.85
2022-11-29T04:48:26.954Z,0.85
2022-11-29T04:53:56.708Z,0.88
2022-11-29T04:59:07.641Z,0.88
2022-11-29T05:04:39.069Z,0.90
2022-11-29T05:10:00.875Z,0.92
2022-11-29T05:15:58.012Z,0.91
2022-11-29T05:21:14.323Z,0.91
2022-11-29T05:26:32.562Z,0.89
2022-11-29T05:32:21.214Z,0.90
2022-11-29T05:37:47.795Z,0.89
2022-11-29T05:43:02.350Z,0.91
2022-11-29T05:48:24.385Z,0.94
2022-11-29T05:54:08.151Z,0.93
2022-11-29T05:59:19.357Z,0.97
2022-11-29T06:04:33.253Z,0.97
2022-11-29T06:09:48.165Z,0.97
2022-11-29T06:15:28.511Z,0.98
2022-11-29T06:21:02.025Z,0.97
2022-11-29T06:26:29.218Z,0.99
2022-11-29T06:31:38.525Z,1.02
2022-11-29T06:37:09.791Z,1.04
2022-11-29T06:42:12.595Z,1.09
2022-11-29T06:47:54.455Z,1.11
2022-11-29T06:53:21.839Z,1.12
2022-11-29T06:58:49.323Z,1.19
2022-11-29T07:04:17.731Z,1.20
2022-11-29T07:09:25.394Z,1.19
2022-11-29T07:14:28.524Z,1.21
2022-11-29T07:19:46.034Z,1.19
2022-11-29T07:25:17.504Z,1.20
2022-11-29T07:30:30.298Z,1.23
2022-11-29T07:35:47.838Z,1.21
2022-11-29T07:41:23.599Z,1.25
2022-11-29T07:46:28.780Z,1.57
2022-11-29T07:51:34.675Z,1.83
2022-11-29T07:56:37.451Z,1.99
2022-11-29T08:01:41.013Z,2.07
2022-11-29T08:06:43.873Z,2.15
2022-11-29T08:11:46.723Z,2.36
2022-11-29T08:16:49.782Z,2.43
2022-11-29T08:21:55.168Z,2.44
2022-11-29T08:26:58.013Z,2.56
2022-11-29T08:32:01.057Z,2.56
2022-11-29T08:37:04.026Z,2.51
2022-11-29T08:42:09.012Z,2.48
2022-11-29T08:47:30.355Z,2.53
2022-11-29T08:52:56.908Z,2.73
2022-11-29T08:58:14.462Z,2.76
2022-11-29T09:03:36.377Z,2.71
2022-11-29T09:08:39.742Z,2.36
2022-11-29T09:13:44.984Z,2.14
2022-11-29T09:18:52.375Z,2.04
2022-11-29T09:23:59.347Z,1.95
2022-11-29T09:29:04.967Z,1.93
2022-11-29T09:34:07.832Z,1.88
2022-11-29T09:39:14.483Z,1.90
2022-11-29T09:44:30.613Z,1.89
2022-11-29T09:49:46.726Z,1.81
2022-11-29T09:54:58.392Z,1.75
2022-11-29T10:00:09.293Z,1.64
2022-11-29T10:05:21.343Z,1.59
2022-11-29T10:10:38.018Z,1.55
2022-11-29T10:15:44.375Z,1.54
2022-11-29T10:20:49.873Z,1.54
2022-11-29T10:25:55.223Z,1.55
2022-11-29T10:31:17.769Z,1.57
2022-11-29T10:36:40.907Z,1.66
2022-11-29T10:41:43.996Z,1.74
2022-11-29T10:46:47.024Z,1.76
2022-11-29T10:51:50.079Z,1.83
2022-11-29T10:56:57.838Z,1.90
2022-11-29T11:02:23.030Z,1.87
2022-11-29T11:07:33.168Z,1.81
2022-11-29T11:12:37.129Z,1.79
2022-11-29T11:17:42.294Z,1.78
2022-11-29T11:22:59.805Z,1.75
2022-11-29T11:28:20.959Z,1.73
2022-11-29T11:33:37.344Z,1.72
2022-11-29T11:38:55.802Z,1.71
2022-11-29T11:44:00.121Z,1.69
2022-11-29T11:49:11.351Z,1.71
2022-11-29T11:54:15.586Z,1.70
2022-11-29T11:59:21.407Z,1.67
2022-11-29T12:04:37.243Z,1.63
2022-11-29T12:09:48.014Z,1.67
2022-11-29T12:14:58.227Z,1.67
2022-11-29T12:20:22.626Z,1.67
2022-11-29T12:25:32.602Z,1.63
2022-11-29T12:30:37.114Z,1.57
2022-11-29T12:36:13.211Z,1.52
2022-11-29T12:41:52.443Z,1.50
2022-11-29T12:47:36.113Z,1.50
2022-11-29T12:52:51.385Z,1.49
2022-11-29T12:58:00.353Z,1.50
2022-11-29T13:03:22.765Z,1.49
2022-11-29T13:08:45.894Z,1.50
2022-11-29T13:14:20.190Z,1.53
2022-11-29T13:19:34.916Z,1.52
2022-11-29T13:24:43.405Z,1.45
2022-11-29T13:29:48.310Z,1.38
2022-11-29T13:34:53.124Z,1.34
2022-11-29T13:40:11.244Z,1.35
2022-11-29T13:45:26.489Z,1.37
2022-11-29T13:50:40.435Z,1.35
2022-11-29T13:56:02.611Z,1.31
2022-11-29T14:01:12.186Z,1.33
2022-11-29T14:06:21.360Z,1.32
2022-11-29T14:11:51.106Z,1.31
2022-11-29T14:16:59.653Z,1.26
2022-11-29T14:22:03.064Z,1.18
2022-11-29T14:27:06.928Z,1.09
2022-11-29T14:32:21.195Z,1.06
2022-11-29T14:37:33.626Z,1.08
2022-11-29T14:42:46.822Z,1.11
2022-11-29T14:47:50.735Z,1.11
2022-11-29T14:52:54.245Z,1.15
2022-11-29T14:58:04.071Z,1.15
2022-11-29T15:03:37.876Z,1.05
2022-11-29T15:08:52.000Z,0.92
2022-11-29T15:14:09.812Z,0.86
2022-11-29T15:19:31.482Z,0.83
2022-11-29T15:25:02.256Z,0.82
2022-11-29T15:30:23.458Z,0.80
2022-11-29T15:35:27.038Z,0.75
2022-11-29T15:40:35.630Z,0.71
2022-11-29T15:45:39.989Z,0.72
2022-11-29T15:51:00.393Z,0.75
2022-11-29T15:56:12.213Z,0.78
2022-11-29T16:01:20.670Z,0.82
2022-11-29T16:06:40.882Z,0.84
2022-11-29T16:11:44.624Z,0.86
2022-11-29T16:16:50.172Z,0.86
2022-11-29T16:22:26.170Z,0.83
2022-11-29T16:27:33.664Z,0.84
2022-11-29T16:32:42.530Z,0.84
2022-11-29T16:37:46.667Z,0.81
2022-11-29T16:43:47.508Z,0.81
2022-11-29T16:48:57.471Z,0.82
2022-11-29T16:54:21.215Z,0.81
2022-11-29T16:59:28.350Z,0.84
2022-11-29T17:04:31.437Z,0.86
2022-11-29T17:09:34.776Z,0.85
2022-11-29T17:14:40.023Z,0.86
2022-11-29T17:19:43.708Z,0.92
2022-11-29T17:24:48.574Z,0.96
2022-11-29T17:29:54.007Z,0.95
2022-11-29T17:34:56.892Z,0.95
2022-11-29T17:40:00.972Z,1.00
2022-11-29T17:45:04.388Z,1.04
2022-11-29T17:50:07.707Z,1.04
2022-11-29T17:55:10.677Z,1.07
2022-11-29T18:00:15.542Z,1.12
2022-11-29T18:05:18.641Z,1.13
2022-11-29T18:10:21.447Z,1.13
2022-11-29T18:15:27.212Z,1.12
2022-11-29T18:20:29.983Z,1.14
2022-11-29T18:25:40.476Z,1.15
2022-11-29T18:30:44.146Z,1.17
2022-11-29T18:35:48.884Z,1.17
2022-11-29T18:40:51.720Z,1.18
2022-11-29T18:45:54.516Z,1.22
2022-11-29T18:51:05.928Z,1.25
2022-11-29T18:56:17.032Z,1.23
2022-11-29T19:01:21.298Z,1.23
2022-11-29T19:06:27.692Z,1.24
2022-11-29T19:11:34.783Z,1.25
2022-11-29T19:16:39.409Z,1.27
2022-11-29T19:21:42.350Z,1.28
2022-11-29T19:26:47.667Z,1.29
2022-11-29T19:31:50.615Z,1.28
2022-11-29T19:36:53.415Z,1.30
2022-11-29T19:41:56.191Z,1.31
2022-11-29T19:46:59.327Z,1.31
2022-11-29T19:52:07.315Z,1.34
2022-11-29T19:57:10.110Z,1.34
2022-11-29T20:02:13.221Z,1.34
2022-11-29T20:07:16.342Z,1.35
2022-11-29T20:12:19.165Z,1.35
2022-11-29T20:17:22.582Z,1.39
2022-11-29T20:22:25.366Z,1.45
2022-11-29T20:27:28.193Z,1.44
2022-11-29T20:32:31.258Z,1.43
2022-11-29T20:37:45.158Z,1.41
2022-11-29T20:42:54.219Z,1.40
2022-11-29T20:48:36.112Z,1.36
2022-11-29T20:53:42.951Z,1.30
2022-11-29T20:58:45.784Z,1.26
2022-11-29T21:03:48.778Z,1.21
2022-11-29T21:08:51.702Z,1.20
2022-11-29T21:13:55.058Z,1.17
2022-11-29T21:19:00.763Z,1.16
2022-11-29T21:24:19.675Z,1.15
2022-11-29T21:29:23.517Z,1.11
2022-11-29T21:34:26.322Z,1.06
2022-11-29T21:39:34.126Z,1.04
2022-11-29T21:44:36.894Z,1.02
2022-11-29T21:49:40.006Z,1.03
2022-11-29T21:54:42.804Z,1.02
2022-11-29T21:59:45.818Z,1.05
2022-11-29T22:04:48.956Z,1.10
2022-11-29T22:09:52.104Z,1.12
2022-11-29T22:14:54.860Z,1.09
2022-11-29T22:19:57.605Z,1.03
2022-11-29T22:25:00.360Z,1.01
2022-11-29T22:30:03.496Z,1.03
2022-11-29T22:35:06.500Z,1.01
2022-11-29T22:40:09.509Z,0.99
2022-11-29T22:45:12.368Z,0.99
2022-11-29T22:50:15.231Z,0.96
2022-11-29T22:55:18.012Z,0.91
2022-11-29T23:00:21.344Z,0.90
2022-11-29T23:05:27.259Z,0.91
2022-11-29T23:10:33.602Z,0.87
2022-11-29T23:15:36.361Z,0.89
2022-11-29T23:20:39.884Z,0.93
2022-11-29T23:25:49.623Z,0.91
2022-11-29T23:30:54.346Z,0.91
2022-11-29T23:36:03.178Z,0.90
2022-11-29T23:41:07.458Z,0.88
2022-11-29T23:46:14.424Z,0.88
2022-11-29T23:51:17.954Z,0.85
2022-11-29T23:56:21.900Z,0.82
